sensor_id;sensor_type;location;lat;lon;timestamp;P1;durP1;ratioP1;P2;durP2;ratioP2
43226;SDS011;28839;52.404;9.808;2023-03-21T00:04:53;42.45;;;30.83;;
43226;SDS011;28839;52.404;9.808;2023-03-21T00:11:49;43.20;;;29.37;;
43226;SDS011;28839;52.404;9.808;2023-03-21T00:18:43;44.33;;;29.48;;
43226;SDS011;28839;52.404;9.808;2023-03-21T00:25:39;54.38;;;32.95;;
43226;SDS011;28839;52.404;9.808;2023-03-21T00:32:34;46.63;;;31.30;;
43226;SDS011;28839;52.404;9.808;2023-03-21T00:39:28;49.03;;;32.38;;
43226;SDS011;28839;52.404;9.808;2023-03-21T00:46:23;47.40;;;30.80;;
43226;SDS011;28839;52.404;9.808;2023-03-21T00:53:18;45.67;;;31.80;;
43226;SDS011;28839;52.404;9.808;2023-03-21T01:00:13;47.78;;;31.65;;
43226;SDS011;28839;52.404;9.808;2023-03-21T01:07:08;49.53;;;32.33;;
43226;SDS011;28839;52.404;9.808;2023-03-21T01:14:04;51.20;;;32.22;;
43226;SDS011;28839;52.404;9.808;2023-03-21T01:20:58;48.65;;;31.75;;
43226;SDS011;28839;52.404;9.808;2023-03-21T01:27:52;48.03;;;32.42;;
43226;SDS011;28839;52.404;9.808;2023-03-21T01:34:48;49.60;;;32.13;;
43226;SDS011;28839;52.404;9.808;2023-03-21T01:41:41;46.90;;;30.77;;
43226;SDS011;28839;52.404;9.808;2023-03-21T01:48:36;41.33;;;30.83;;
43226;SDS011;28839;52.404;9.808;2023-03-21T01:55:33;53.33;;;32.40;;
43226;SDS011;28839;52.404;9.808;2023-03-21T02:02:29;46.37;;;31.27;;
43226;SDS011;28839;52.404;9.808;2023-03-21T02:09:24;50.00;;;32.63;;
43226;SDS011;28839;52.404;9.808;2023-03-21T02:16:26;43.83;;;31.15;;
43226;SDS011;28839;52.404;9.808;2023-03-21T02:23:35;45.88;;;33.67;;
43226;SDS011;28839;52.404;9.808;2023-03-21T02:30:47;46.07;;;31.13;;
43226;SDS011;28839;52.404;9.808;2023-03-21T02:38:03;47.33;;;31.17;;
43226;SDS011;28839;52.404;9.808;2023-03-21T02:45:04;44.78;;;31.67;;
43226;SDS011;28839;52.404;9.808;2023-03-21T02:52:03;42.22;;;30.95;;
43226;SDS011;28839;52.404;9.808;2023-03-21T02:59:01;41.85;;;29.17;;
43226;SDS011;28839;52.404;9.808;2023-03-21T03:05:56;39.75;;;29.08;;
43226;SDS011;28839;52.404;9.808;2023-03-21T03:12:56;46.17;;;29.40;;
43226;SDS011;28839;52.404;9.808;2023-03-21T03:20:06;40.83;;;28.03;;
43226;SDS011;28839;52.404;9.808;2023-03-21T03:27:07;40.88;;;29.30;;
43226;SDS011;28839;52.404;9.808;2023-03-21T03:34:08;40.97;;;29.23;;
43226;SDS011;28839;52.404;9.808;2023-03-21T03:41:08;42.80;;;27.92;;
43226;SDS011;28839;52.404;9.808;2023-03-21T03:48:11;42.13;;;27.50;;
43226;SDS011;28839;52.404;9.808;2023-03-21T03:55:10;44.28;;;28.45;;
43226;SDS011;28839;52.404;9.808;2023-03-21T04:02:10;41.45;;;27.55;;
43226;SDS011;28839;52.404;9.808;2023-03-21T04:09:04;39.75;;;25.75;;
43226;SDS011;28839;52.404;9.808;2023-03-21T04:15:59;40.28;;;26.30;;
43226;SDS011;28839;52.404;9.808;2023-03-21T04:22:54;35.25;;;24.77;;
43226;SDS011;28839;52.404;9.808;2023-03-21T04:29:48;31.98;;;23.10;;
43226;SDS011;28839;52.404;9.808;2023-03-21T04:36:42;34.72;;;23.20;;
43226;SDS011;28839;52.404;9.808;2023-03-21T04:43:38;32.30;;;23.02;;
43226;SDS011;28839;52.404;9.808;2023-03-21T04:50:32;35.05;;;22.77;;
43226;SDS011;28839;52.404;9.808;2023-03-21T04:57:26;36.00;;;23.73;;
43226;SDS011;28839;52.404;9.808;2023-03-21T05:04:21;37.75;;;23.35;;
43226;SDS011;28839;52.404;9.808;2023-03-21T05:11:15;35.95;;;24.45;;
43226;SDS011;28839;52.404;9.808;2023-03-21T05:18:09;34.05;;;24.05;;
43226;SDS011;28839;52.404;9.808;2023-03-21T05:25:05;34.42;;;23.92;;
43226;SDS011;28839;52.404;9.808;2023-03-21T05:31:59;33.75;;;24.42;;
43226;SDS011;28839;52.404;9.808;2023-03-21T05:38:53;33.77;;;24.77;;
43226;SDS011;28839;52.404;9.808;2023-03-21T05:45:49;38.80;;;24.73;;
43226;SDS011;28839;52.404;9.808;2023-03-21T05:52:42;31.35;;;23.38;;
43226;SDS011;28839;52.404;9.808;2023-03-21T05:59:36;34.95;;;24.02;;
43226;SDS011;28839;52.404;9.808;2023-03-21T06:06:31;36.67;;;23.70;;
43226;SDS011;28839;52.404;9.808;2023-03-21T06:13:25;33.13;;;22.37;;
43226;SDS011;28839;52.404;9.808;2023-03-21T06:20:19;33.97;;;22.00;;
43226;SDS011;28839;52.404;9.808;2023-03-21T06:27:15;42.17;;;23.17;;
43226;SDS011;28839;52.404;9.808;2023-03-21T06:34:09;31.87;;;23.02;;
43226;SDS011;28839;52.404;9.808;2023-03-21T06:41:07;38.78;;;25.75;;
43226;SDS011;28839;52.404;9.808;2023-03-21T06:48:03;46.88;;;25.50;;
43226;SDS011;28839;52.404;9.808;2023-03-21T06:54:57;47.95;;;25.42;;
43226;SDS011;28839;52.404;9.808;2023-03-21T07:01:51;43.10;;;26.92;;
43226;SDS011;28839;52.404;9.808;2023-03-21T07:08:46;48.47;;;28.33;;
43226;SDS011;28839;52.404;9.808;2023-03-21T07:15:40;46.78;;;27.62;;
43226;SDS011;28839;52.404;9.808;2023-03-21T07:22:35;49.07;;;27.10;;
43226;SDS011;28839;52.404;9.808;2023-03-21T07:29:30;42.70;;;26.02;;
43226;SDS011;28839;52.404;9.808;2023-03-21T07:36:24;42.33;;;24.58;;
43226;SDS011;28839;52.404;9.808;2023-03-21T07:50:14;39.97;;;22.65;;
43226;SDS011;28839;52.404;9.808;2023-03-21T07:57:10;36.70;;;21.30;;
43226;SDS011;28839;52.404;9.808;2023-03-21T08:04:04;34.85;;;21.48;;
43226;SDS011;28839;52.404;9.808;2023-03-21T08:11:02;34.72;;;20.88;;
43226;SDS011;28839;52.404;9.808;2023-03-21T08:17:57;37.97;;;18.67;;
43226;SDS011;28839;52.404;9.808;2023-03-21T08:24:52;34.13;;;18.70;;
43226;SDS011;28839;52.404;9.808;2023-03-21T08:31:48;30.33;;;19.17;;
43226;SDS011;28839;52.404;9.808;2023-03-21T08:38:41;29.80;;;17.08;;
43226;SDS011;28839;52.404;9.808;2023-03-21T08:45:45;31.83;;;17.40;;
43226;SDS011;28839;52.404;9.808;2023-03-21T08:52:40;34.70;;;18.73;;
43226;SDS011;28839;52.404;9.808;2023-03-21T08:59:34;34.58;;;20.27;;
43226;SDS011;28839;52.404;9.808;2023-03-21T09:06:28;33.15;;;19.83;;
43226;SDS011;28839;52.404;9.808;2023-03-21T09:13:23;33.87;;;19.77;;
43226;SDS011;28839;52.404;9.808;2023-03-21T09:20:18;30.15;;;18.05;;
43226;SDS011;28839;52.404;9.808;2023-03-21T09:27:17;30.75;;;18.62;;
43226;SDS011;28839;52.404;9.808;2023-03-21T09:34:16;28.95;;;17.05;;
43226;SDS011;28839;52.404;9.808;2023-03-21T09:41:19;32.03;;;17.73;;
43226;SDS011;28839;52.404;9.808;2023-03-21T09:48:32;28.08;;;17.20;;
43226;SDS011;28839;52.404;9.808;2023-03-21T09:55:32;34.38;;;16.52;;
43226;SDS011;28839;52.404;9.808;2023-03-21T10:02:33;27.00;;;14.70;;
43226;SDS011;28839;52.404;9.808;2023-03-21T10:09:29;33.72;;;15.20;;
43226;SDS011;28839;52.404;9.808;2023-03-21T10:16:28;28.85;;;15.63;;
43226;SDS011;28839;52.404;9.808;2023-03-21T10:23:24;22.13;;;13.60;;
43226;SDS011;28839;52.404;9.808;2023-03-21T10:30:24;34.28;;;16.58;;
43226;SDS011;28839;52.404;9.808;2023-03-21T10:37:23;30.00;;;18.12;;
43226;SDS011;28839;52.404;9.808;2023-03-21T10:44:18;27.13;;;17.10;;
43226;SDS011;28839;52.404;9.808;2023-03-21T10:51:14;32.17;;;16.15;;
43226;SDS011;28839;52.404;9.808;2023-03-21T10:58:14;33.22;;;17.58;;
43226;SDS011;28839;52.404;9.808;2023-03-21T11:05:17;27.33;;;15.90;;
43226;SDS011;28839;52.404;9.808;2023-03-21T11:12:14;28.98;;;15.77;;
43226;SDS011;28839;52.404;9.808;2023-03-21T11:19:14;23.30;;;12.88;;
43226;SDS011;28839;52.404;9.808;2023-03-21T11:26:10;25.30;;;14.73;;
43226;SDS011;28839;52.404;9.808;2023-03-21T11:33:10;23.62;;;13.57;;
43226;SDS011;28839;52.404;9.808;2023-03-21T11:40:12;23.40;;;14.57;;
43226;SDS011;28839;52.404;9.808;2023-03-21T11:47:12;29.40;;;15.02;;
43226;SDS011;28839;52.404;9.808;2023-03-21T11:54:08;27.92;;;14.45;;
43226;SDS011;28839;52.404;9.808;2023-03-21T12:01:12;24.37;;;14.18;;
43226;SDS011;28839;52.404;9.808;2023-03-21T12:08:16;26.73;;;14.93;;
43226;SDS011;28839;52.404;9.808;2023-03-21T12:15:20;26.25;;;15.45;;
43226;SDS011;28839;52.404;9.808;2023-03-21T12:22:22;32.83;;;16.10;;
43226;SDS011;28839;52.404;9.808;2023-03-21T12:29:25;32.53;;;16.40;;
43226;SDS011;28839;52.404;9.808;2023-03-21T12:36:32;29.27;;;16.73;;
43226;SDS011;28839;52.404;9.808;2023-03-21T12:43:38;28.52;;;15.68;;
43226;SDS011;28839;52.404;9.808;2023-03-21T12:50:36;30.58;;;16.67;;
43226;SDS011;28839;52.404;9.808;2023-03-21T12:57:32;30.90;;;16.50;;
43226;SDS011;28839;52.404;9.808;2023-03-21T13:04:33;30.15;;;16.60;;
43226;SDS011;28839;52.404;9.808;2023-03-21T13:11:35;26.73;;;17.23;;
43226;SDS011;28839;52.404;9.808;2023-03-21T13:18:35;25.25;;;15.25;;
43226;SDS011;28839;52.404;9.808;2023-03-21T13:25:45;26.67;;;17.25;;
43226;SDS011;28839;52.404;9.808;2023-03-21T13:32:41;25.83;;;16.00;;
43226;SDS011;28839;52.404;9.808;2023-03-21T13:39:36;31.15;;;16.87;;
43226;SDS011;28839;52.404;9.808;2023-03-21T13:46:43;30.25;;;16.87;;
43226;SDS011;28839;52.404;9.808;2023-03-21T13:53:44;21.73;;;13.57;;
43226;SDS011;28839;52.404;9.808;2023-03-21T14:01:10;21.10;;;12.40;;
43226;SDS011;28839;52.404;9.808;2023-03-21T14:08:24;20.85;;;12.52;;
43226;SDS011;28839;52.404;9.808;2023-03-21T14:15:22;19.60;;;12.10;;
43226;SDS011;28839;52.404;9.808;2023-03-21T14:22:18;20.30;;;13.90;;
43226;SDS011;28839;52.404;9.808;2023-03-21T14:29:16;22.10;;;11.87;;
43226;SDS011;28839;52.404;9.808;2023-03-21T14:36:14;23.25;;;13.40;;
43226;SDS011;28839;52.404;9.808;2023-03-21T14:43:10;21.37;;;13.18;;
43226;SDS011;28839;52.404;9.808;2023-03-21T14:57:03;28.15;;;13.30;;
43226;SDS011;28839;52.404;9.808;2023-03-21T15:04:03;23.98;;;13.07;;
43226;SDS011;28839;52.404;9.808;2023-03-21T15:11:00;29.45;;;15.85;;
43226;SDS011;28839;52.404;9.808;2023-03-21T15:17:57;27.75;;;15.77;;
43226;SDS011;28839;52.404;9.808;2023-03-21T15:24:56;26.33;;;16.25;;
43226;SDS011;28839;52.404;9.808;2023-03-21T15:31:55;26.65;;;15.95;;
43226;SDS011;28839;52.404;9.808;2023-03-21T15:38:50;24.75;;;14.18;;
43226;SDS011;28839;52.404;9.808;2023-03-21T15:45:45;26.08;;;13.55;;
43226;SDS011;28839;52.404;9.808;2023-03-21T15:52:41;24.87;;;15.27;;
43226;SDS011;28839;52.404;9.808;2023-03-21T15:59:36;19.85;;;12.27;;
43226;SDS011;28839;52.404;9.808;2023-03-21T16:06:34;16.95;;;10.85;;
43226;SDS011;28839;52.404;9.808;2023-03-21T16:13:30;15.68;;;10.85;;
43226;SDS011;28839;52.404;9.808;2023-03-21T16:20:25;20.40;;;10.82;;
43226;SDS011;28839;52.404;9.808;2023-03-21T16:27:20;15.75;;;9.77;;
43226;SDS011;28839;52.404;9.808;2023-03-21T16:34:16;18.10;;;11.30;;
43226;SDS011;28839;52.404;9.808;2023-03-21T16:41:10;18.05;;;11.25;;
43226;SDS011;28839;52.404;9.808;2023-03-21T16:48:04;16.48;;;12.27;;
43226;SDS011;28839;52.404;9.808;2023-03-21T16:55:01;18.33;;;11.63;;
43226;SDS011;28839;52.404;9.808;2023-03-21T17:01:54;15.93;;;12.10;;
43226;SDS011;28839;52.404;9.808;2023-03-21T17:08:48;19.17;;;12.48;;
43226;SDS011;28839;52.404;9.808;2023-03-21T17:15:44;16.07;;;11.10;;
43226;SDS011;28839;52.404;9.808;2023-03-21T17:22:39;15.85;;;9.43;;
43226;SDS011;28839;52.404;9.808;2023-03-21T17:29:33;14.37;;;8.43;;
43226;SDS011;28839;52.404;9.808;2023-03-21T17:36:29;15.02;;;10.13;;
43226;SDS011;28839;52.404;9.808;2023-03-21T17:43:24;13.62;;;9.45;;
43226;SDS011;28839;52.404;9.808;2023-03-21T17:50:20;14.37;;;8.93;;
43226;SDS011;28839;52.404;9.808;2023-03-21T17:57:17;11.30;;;7.75;;
43226;SDS011;28839;52.404;9.808;2023-03-21T18:04:11;9.57;;;6.68;;
43226;SDS011;28839;52.404;9.808;2023-03-21T18:11:05;9.73;;;6.40;;
43226;SDS011;28839;52.404;9.808;2023-03-21T18:18:00;8.10;;;5.40;;
43226;SDS011;28839;52.404;9.808;2023-03-21T18:24:54;10.52;;;6.97;;
43226;SDS011;28839;52.404;9.808;2023-03-21T18:31:48;7.53;;;5.93;;
43226;SDS011;28839;52.404;9.808;2023-03-21T18:38:44;8.27;;;5.87;;
43226;SDS011;28839;52.404;9.808;2023-03-21T18:45:39;8.82;;;6.07;;
43226;SDS011;28839;52.404;9.808;2023-03-21T18:52:33;9.13;;;5.47;;
43226;SDS011;28839;52.404;9.808;2023-03-21T18:59:30;10.40;;;5.53;;
43226;SDS011;28839;52.404;9.808;2023-03-21T19:06:25;10.80;;;5.78;;
43226;SDS011;28839;52.404;9.808;2023-03-21T19:13:19;7.10;;;5.43;;
43226;SDS011;28839;52.404;9.808;2023-03-21T19:20:15;7.97;;;5.23;;
43226;SDS011;28839;52.404;9.808;2023-03-21T19:27:09;8.63;;;6.15;;
43226;SDS011;28839;52.404;9.808;2023-03-21T19:40:59;8.40;;;4.75;;
43226;SDS011;28839;52.404;9.808;2023-03-21T19:47:54;6.65;;;4.37;;
43226;SDS011;28839;52.404;9.808;2023-03-21T19:54:48;4.68;;;4.10;;
43226;SDS011;28839;52.404;9.808;2023-03-21T20:01:43;7.63;;;4.33;;
43226;SDS011;28839;52.404;9.808;2023-03-21T20:08:38;10.00;;;5.18;;
43226;SDS011;28839;52.404;9.808;2023-03-21T20:15:33;8.30;;;4.28;;
43226;SDS011;28839;52.404;9.808;2023-03-21T20:22:28;6.07;;;4.17;;
43226;SDS011;28839;52.404;9.808;2023-03-21T20:29:22;4.30;;;3.53;;
43226;SDS011;28839;52.404;9.808;2023-03-21T20:36:16;27.37;;;14.93;;
43226;SDS011;28839;52.404;9.808;2023-03-21T20:43:12;7.93;;;4.97;;
43226;SDS011;28839;52.404;9.808;2023-03-21T20:50:07;25.23;;;15.32;;
43226;SDS011;28839;52.404;9.808;2023-03-21T20:57:03;8.98;;;7.53;;
43226;SDS011;28839;52.404;9.808;2023-03-21T21:03:58;15.55;;;10.40;;
43226;SDS011;28839;52.404;9.808;2023-03-21T21:10:53;15.88;;;10.40;;
43226;SDS011;28839;52.404;9.808;2023-03-21T21:17:47;9.70;;;7.12;;
43226;SDS011;28839;52.404;9.808;2023-03-21T21:24:44;14.90;;;9.82;;
43226;SDS011;28839;52.404;9.808;2023-03-21T21:31:38;14.00;;;7.62;;
43226;SDS011;28839;52.404;9.808;2023-03-21T21:38:32;9.60;;;5.53;;
43226;SDS011;28839;52.404;9.808;2023-03-21T21:45:27;8.93;;;5.80;;
43226;SDS011;28839;52.404;9.808;2023-03-21T21:52:21;10.70;;;5.95;;
43226;SDS011;28839;52.404;9.808;2023-03-21T21:59:15;5.57;;;4.97;;
43226;SDS011;28839;52.404;9.808;2023-03-21T22:06:10;8.38;;;5.10;;
43226;SDS011;28839;52.404;9.808;2023-03-21T22:13:04;9.30;;;5.20;;
43226;SDS011;28839;52.404;9.808;2023-03-21T22:19:58;7.25;;;5.37;;
43226;SDS011;28839;52.404;9.808;2023-03-21T22:26:54;9.53;;;5.70;;
43226;SDS011;28839;52.404;9.808;2023-03-21T22:33:49;9.68;;;5.62;;
43226;SDS011;28839;52.404;9.808;2023-03-21T22:40:43;8.68;;;6.40;;
43226;SDS011;28839;52.404;9.808;2023-03-21T22:47:38;11.17;;;5.10;;
43226;SDS011;28839;52.404;9.808;2023-03-21T22:54:32;9.73;;;5.93;;
43226;SDS011;28839;52.404;9.808;2023-03-21T23:01:26;12.03;;;7.73;;
43226;SDS011;28839;52.404;9.808;2023-03-21T23:08:21;11.57;;;6.82;;
43226;SDS011;28839;52.404;9.808;2023-03-21T23:15:15;11.95;;;6.60;;
43226;SDS011;28839;52.404;9.808;2023-03-21T23:22:09;10.73;;;7.27;;
43226;SDS011;28839;52.404;9.808;2023-03-21T23:29:04;13.75;;;7.05;;
43226;SDS011;28839;52.404;9.808;2023-03-21T23:36:00;14.00;;;7.40;;
43226;SDS011;28839;52.404;9.808;2023-03-21T23:42:54;11.73;;;7.77;;
43226;SDS011;28839;52.404;9.808;2023-03-21T23:49:49;10.57;;;7.62;;
43226;SDS011;28839;52.404;9.808;2023-03-21T23:56:43;10.60;;;8.02;;
